createdAt,value
2017-08-17T00:00:25.174Z,12.40
2017-08-17T00:02:53.530Z,8.90
2017-08-17T00:05:21.790Z,8.90
2017-08-17T00:07:50.018Z,9.53
2017-08-17T00:10:17.522Z,9.40
2017-08-17T00:12:44.998Z,14.60
2017-08-17T00:15:12.490Z,11.40
2017-08-17T00:17:40.097Z,9.90
2017-08-17T00:20:08.325Z,12.50
2017-08-17T00:22:35.792Z,10.10
2017-08-17T00:25:04.173Z,11.40
2017-08-17T00:27:31.719Z,10.27
2017-08-17T00:29:59.270Z,14.67
2017-08-17T00:32:26.997Z,10.40
2017-08-17T00:34:54.550Z,11.97
2017-08-17T00:37:22.086Z,12.07
2017-08-17T00:39:50.482Z,10.50
2017-08-17T00:42:17.954Z,12.30
2017-08-17T00:44:45.421Z,12.27
2017-08-17T00:47:12.970Z,15.17
2017-08-17T00:49:41.442Z,12.80
2017-08-17T00:52:09.707Z,15.60
2017-08-17T00:54:37.962Z,14.10
2017-08-17T00:57:06.307Z,17.30
2017-08-17T00:59:33.801Z,17.27
2017-08-17T01:02:01.280Z,15.23
2017-08-17T01:04:28.798Z,17.00
2017-08-17T01:06:56.487Z,15.30
2017-08-17T01:09:24.054Z,14.43
2017-08-17T01:11:51.556Z,17.77
2017-08-17T01:14:19.034Z,15.57
2017-08-17T01:16:46.593Z,14.53
2017-08-17T01:19:14.857Z,20.53
2017-08-17T01:21:43.086Z,19.70
2017-08-17T01:24:10.558Z,18.30
2017-08-17T01:26:38.966Z,17.00
2017-08-17T01:29:06.436Z,15.13
2017-08-17T01:31:33.913Z,18.77
2017-08-17T01:34:01.470Z,18.60
2017-08-17T01:36:29.014Z,17.03
2017-08-17T01:38:56.547Z,18.17
2017-08-17T01:41:24.013Z,18.33
2017-08-17T01:43:51.523Z,23.33
2017-08-17T01:46:19.766Z,17.80
2017-08-17T01:48:47.323Z,18.40
2017-08-17T01:51:15.577Z,21.30
2017-08-17T01:53:43.819Z,18.90
2017-08-17T01:56:11.386Z,17.30
2017-08-17T01:58:39.647Z,24.93
2017-08-17T02:01:07.907Z,24.90
2017-08-17T02:03:36.156Z,23.73
2017-08-17T02:06:03.712Z,20.70
2017-08-17T02:08:31.985Z,21.00
2017-08-17T02:10:59.469Z,16.63
2017-08-17T02:13:26.988Z,18.77
2017-08-17T02:15:54.544Z,17.17
2017-08-17T02:18:22.019Z,18.07
2017-08-17T02:20:49.603Z,19.77
2017-08-17T02:23:17.866Z,18.53
2017-08-17T02:25:46.131Z,17.77
2017-08-17T02:28:13.667Z,22.77
2017-08-17T02:30:42.023Z,20.47
2017-08-17T02:33:10.288Z,18.27
2017-08-17T02:35:38.546Z,22.00
2017-08-17T02:38:06.290Z,22.63
2017-08-17T02:40:34.569Z,18.93
2017-08-17T02:43:02.110Z,23.20
2017-08-17T02:45:29.858Z,21.33
2017-08-17T02:47:57.335Z,20.40
2017-08-17T02:50:24.806Z,23.80
2017-08-17T02:52:52.375Z,26.63
2017-08-17T02:55:20.611Z,19.27
2017-08-17T02:57:48.278Z,20.57
2017-08-17T03:00:16.542Z,19.43
2017-08-17T03:02:44.774Z,17.03
2017-08-17T03:05:12.442Z,20.07
2017-08-17T03:07:40.673Z,20.97
2017-08-17T03:10:08.166Z,18.63
2017-08-17T03:12:35.645Z,18.63
2017-08-17T03:15:03.134Z,17.83
2017-08-17T03:17:30.859Z,24.20
2017-08-17T03:19:59.217Z,23.93
2017-08-17T03:22:27.458Z,22.17
2017-08-17T03:24:54.958Z,17.80
2017-08-17T03:27:22.431Z,20.03
2017-08-17T03:29:49.898Z,20.60
2017-08-17T03:32:18.274Z,28.73
2017-08-17T03:34:46.507Z,21.40
2017-08-17T03:37:14.079Z,19.83
2017-08-17T03:39:41.828Z,20.37
2017-08-17T03:42:09.327Z,21.60
2017-08-17T03:44:36.921Z,17.90
2017-08-17T03:47:04.558Z,20.10
2017-08-17T03:49:32.811Z,19.33
2017-08-17T03:52:01.073Z,18.60
2017-08-17T03:54:29.434Z,17.93
2017-08-17T03:56:57.670Z,19.80
2017-08-17T03:59:25.238Z,21.37
2017-08-17T04:01:53.602Z,27.90
2017-08-17T04:04:21.847Z,18.80
2017-08-17T04:06:49.402Z,19.87
2017-08-17T04:09:17.703Z,21.70
2017-08-17T04:11:45.186Z,19.30
2017-08-17T04:14:12.670Z,18.13
2017-08-17T04:16:40.162Z,22.60
2017-08-17T04:19:07.711Z,21.77
2017-08-17T04:21:35.207Z,20.80
2017-08-17T04:24:02.695Z,20.40
2017-08-17T04:26:30.183Z,19.53
2017-08-17T04:28:57.799Z,18.03
2017-08-17T04:31:25.283Z,24.53
2017-08-17T04:33:52.858Z,21.80
2017-08-17T04:36:21.182Z,24.10
2017-08-17T04:38:48.663Z,21.83
2017-08-17T04:41:16.214Z,27.03
2017-08-17T04:43:43.706Z,32.73
2017-08-17T04:46:11.190Z,24.33
2017-08-17T04:48:39.494Z,22.90
2017-08-17T04:51:06.994Z,24.00
2017-08-17T04:53:35.259Z,27.77
2017-08-17T04:56:20.486Z,25.93
2017-08-17T04:58:48.055Z,28.53
2017-08-17T05:01:16.418Z,24.93
2017-08-17T05:03:44.686Z,24.00
2017-08-17T05:06:12.221Z,22.47
2017-08-17T05:08:40.459Z,24.43
2017-08-17T05:11:07.963Z,26.60
2017-08-17T05:13:35.475Z,22.57
2017-08-17T05:16:03.054Z,25.37
2017-08-17T05:18:30.565Z,25.27
2017-08-17T05:20:58.050Z,25.60
2017-08-17T05:23:25.520Z,25.53
2017-08-17T05:25:53.170Z,27.57
2017-08-17T05:28:20.639Z,25.53
2017-08-17T05:30:48.109Z,23.57
2017-08-17T05:33:15.582Z,25.70
2017-08-17T05:35:43.050Z,24.13
2017-08-17T05:38:10.729Z,26.70
2017-08-17T05:40:38.961Z,24.73
2017-08-17T05:43:06.534Z,23.63
2017-08-17T05:45:34.907Z,20.87
2017-08-17T05:48:02.391Z,21.27
2017-08-17T05:50:29.893Z,26.90
2017-08-17T05:52:57.437Z,24.77
2017-08-17T05:55:24.901Z,22.43
2017-08-17T05:57:52.414Z,22.70
2017-08-17T06:00:20.871Z,23.60
2017-08-17T06:02:49.136Z,22.90
2017-08-17T06:05:17.371Z,22.00
2017-08-17T06:07:44.869Z,18.60
2017-08-17T06:10:12.379Z,19.87
2017-08-17T06:12:40.634Z,22.77
2017-08-17T06:15:08.907Z,19.20
2017-08-17T06:17:36.388Z,23.63
2017-08-17T06:20:04.673Z,21.17
2017-08-17T06:22:32.203Z,23.60
2017-08-17T06:24:59.750Z,20.27
2017-08-17T06:27:27.515Z,19.90
2017-08-17T06:29:55.134Z,20.03
2017-08-17T06:32:23.365Z,25.90
2017-08-17T06:34:50.934Z,20.10
2017-08-17T06:37:19.193Z,18.77
2017-08-17T06:39:47.454Z,17.30
2017-08-17T06:42:15.714Z,16.50
2017-08-17T06:44:43.941Z,18.10
2017-08-17T06:47:11.525Z,24.67
2017-08-17T06:49:39.766Z,24.20
2017-08-17T06:52:08.043Z,22.10
2017-08-17T06:54:35.545Z,23.50
2017-08-17T06:57:03.033Z,20.10
2017-08-17T06:59:30.775Z,20.13
2017-08-17T07:01:59.082Z,18.73
2017-08-17T07:04:26.579Z,19.77
2017-08-17T07:06:54.226Z,26.33
2017-08-17T07:09:22.457Z,18.53
2017-08-17T07:11:49.934Z,22.40
2017-08-17T07:14:17.472Z,20.97
2017-08-17T07:16:44.947Z,20.43
2017-08-17T07:19:13.219Z,18.10
2017-08-17T07:21:41.686Z,18.83
2017-08-17T07:24:09.923Z,20.77
2017-08-17T07:26:37.398Z,22.70
2017-08-17T07:29:05.065Z,20.97
2017-08-17T07:31:32.555Z,23.87
2017-08-17T07:34:00.060Z,23.50
2017-08-17T07:36:27.633Z,28.93
2017-08-17T07:38:55.106Z,23.57
2017-08-17T07:41:23.367Z,22.00
2017-08-17T07:43:51.726Z,32.10
2017-08-17T07:46:19.964Z,24.83
2017-08-17T07:48:47.431Z,29.70
2017-08-17T07:51:15.688Z,26.80
2017-08-17T07:53:43.943Z,28.77
2017-08-17T07:56:12.174Z,27.37
2017-08-17T07:58:39.775Z,29.90
2017-08-17T08:01:07.258Z,30.17
2017-08-17T08:03:34.733Z,26.73
2017-08-17T08:06:02.290Z,26.97
2017-08-17T08:08:29.822Z,28.10
2017-08-17T08:10:57.479Z,29.20
2017-08-17T08:13:25.018Z,24.20
2017-08-17T08:15:53.274Z,27.10
2017-08-17T08:18:20.756Z,26.70
2017-08-17T08:20:49.001Z,30.67
2017-08-17T08:23:17.237Z,32.30
2017-08-17T08:25:44.914Z,30.57
2017-08-17T08:28:13.183Z,29.07
2017-08-17T08:30:41.414Z,26.40
2017-08-17T08:33:08.901Z,28.03
2017-08-17T08:35:36.383Z,23.03
2017-08-17T08:38:03.870Z,25.83
2017-08-17T08:40:31.358Z,27.40
2017-08-17T08:42:59.049Z,23.00
2017-08-17T08:45:27.413Z,23.30
2017-08-17T08:47:55.659Z,24.43
2017-08-17T08:50:23.226Z,19.93
2017-08-17T08:52:51.578Z,23.03
2017-08-17T08:55:19.842Z,20.63
2017-08-17T08:57:48.078Z,20.00
2017-08-17T09:00:15.646Z,26.60
2017-08-17T09:02:43.880Z,22.20
2017-08-17T09:05:11.447Z,18.37
2017-08-17T09:07:39.750Z,18.80
2017-08-17T09:10:07.220Z,16.63
2017-08-17T09:12:34.808Z,24.00
2017-08-17T09:15:02.382Z,16.27
2017-08-17T09:17:29.956Z,15.77
2017-08-17T09:19:58.205Z,14.90
2017-08-17T09:22:26.478Z,16.00
2017-08-17T09:24:54.736Z,13.27
2017-08-17T09:27:22.994Z,12.90
2017-08-17T09:29:51.268Z,11.20
2017-08-17T09:32:18.739Z,10.40
2017-08-17T09:34:46.239Z,10.33
2017-08-17T09:37:14.479Z,10.07
2017-08-17T09:39:41.946Z,9.00
2017-08-17T09:42:09.574Z,9.80
2017-08-17T09:44:37.806Z,8.60
2017-08-17T09:47:05.287Z,8.97
2017-08-17T09:49:33.564Z,8.73
2017-08-17T09:52:01.199Z,7.93
2017-08-17T09:54:28.700Z,5.97
2017-08-17T09:56:56.210Z,7.00
2017-08-17T09:59:23.679Z,5.40
2017-08-17T10:01:51.137Z,5.40
2017-08-17T10:04:18.702Z,6.13
2017-08-17T10:06:47.061Z,8.73
2017-08-17T10:09:15.295Z,6.17
2017-08-17T10:11:42.864Z,8.90
2017-08-17T10:14:11.090Z,7.10
2017-08-17T10:16:38.578Z,5.27
2017-08-17T10:19:06.833Z,7.50
2017-08-17T10:21:35.080Z,7.30
2017-08-17T10:24:02.747Z,7.97
2017-08-17T10:26:31.001Z,9.20
2017-08-17T10:28:59.257Z,5.63
2017-08-17T10:31:27.482Z,6.27
2017-08-17T10:33:55.082Z,8.10
2017-08-17T10:36:22.611Z,6.13
2017-08-17T10:38:50.870Z,8.57
2017-08-17T10:41:19.334Z,6.00
2017-08-17T10:43:47.600Z,7.73
2017-08-17T10:46:15.899Z,4.80
2017-08-17T10:48:43.606Z,11.13
2017-08-17T10:51:11.860Z,6.00
2017-08-17T10:53:40.111Z,4.80
2017-08-17T10:56:07.672Z,9.43
2017-08-17T10:58:35.947Z,7.43
2017-08-17T11:01:03.468Z,4.90
2017-08-17T11:03:31.742Z,5.53
2017-08-17T11:05:59.213Z,8.90
2017-08-17T11:08:26.719Z,5.80
2017-08-17T11:10:54.977Z,5.40
2017-08-17T11:13:23.242Z,6.60
2017-08-17T11:15:50.733Z,5.90
2017-08-17T11:18:18.212Z,7.60
2017-08-17T11:20:45.698Z,6.10
2017-08-17T11:23:13.249Z,5.43
2017-08-17T11:25:40.782Z,9.17
2017-08-17T11:28:08.366Z,5.47
2017-08-17T11:30:36.058Z,6.97
2017-08-17T11:33:04.289Z,7.47
2017-08-17T11:35:31.750Z,7.30
2017-08-17T11:37:59.234Z,9.93
2017-08-17T11:40:26.757Z,5.50
2017-08-17T11:42:54.991Z,7.47
2017-08-17T11:45:22.470Z,4.87
2017-08-17T11:47:49.990Z,5.07
2017-08-17T11:50:18.255Z,5.13
2017-08-17T11:52:46.618Z,5.67
2017-08-17T11:55:14.854Z,6.80
2017-08-17T11:57:42.331Z,5.87
2017-08-17T12:00:09.892Z,7.80
2017-08-17T12:02:37.386Z,4.90
2017-08-17T12:05:04.975Z,6.73
2017-08-17T12:07:32.698Z,5.80
2017-08-17T12:10:00.926Z,5.47
2017-08-17T12:12:28.399Z,6.40
2017-08-17T12:14:56.754Z,4.60
2017-08-17T12:17:24.238Z,6.93
2017-08-17T12:19:52.470Z,6.53
2017-08-17T12:22:20.146Z,4.53
2017-08-17T12:24:48.407Z,5.00
2017-08-17T12:27:16.665Z,6.50
2017-08-17T12:29:45.138Z,5.50
2017-08-17T12:32:13.368Z,8.43
2017-08-17T12:34:40.833Z,5.10
2017-08-17T12:37:09.082Z,4.17
2017-08-17T12:39:37.331Z,6.80
2017-08-17T12:42:04.918Z,8.10
2017-08-17T12:44:32.423Z,4.50
2017-08-17T12:47:00.587Z,4.13
2017-08-17T12:49:28.052Z,4.30
2017-08-17T12:51:55.587Z,6.13
2017-08-17T12:54:23.845Z,4.00
2017-08-17T12:56:52.102Z,3.97
2017-08-17T12:59:20.373Z,5.10
2017-08-17T13:01:48.625Z,5.50
2017-08-17T13:04:16.892Z,7.67
2017-08-17T13:06:45.133Z,5.60
2017-08-17T13:09:13.366Z,7.50
2017-08-17T13:11:40.945Z,6.40
2017-08-17T13:14:09.314Z,4.67
2017-08-17T13:16:37.575Z,4.43
2017-08-17T13:19:05.829Z,4.90
2017-08-17T13:21:34.104Z,8.20
2017-08-17T13:24:01.637Z,5.23
2017-08-17T13:26:29.939Z,4.80
2017-08-17T13:28:57.402Z,13.03
2017-08-17T13:31:24.878Z,8.40
2017-08-17T13:33:53.142Z,7.17
2017-08-17T13:36:21.398Z,10.23
2017-08-17T13:38:49.633Z,6.90
2017-08-17T13:41:17.126Z,4.90
2017-08-17T13:43:44.590Z,5.27
2017-08-17T13:46:12.838Z,6.57
2017-08-17T13:48:41.403Z,7.33
2017-08-17T13:51:09.678Z,6.50
2017-08-17T13:53:37.322Z,6.57
2017-08-17T13:56:04.945Z,4.63
2017-08-17T13:58:32.523Z,4.23
2017-08-17T14:01:00.008Z,4.40
2017-08-17T14:03:27.502Z,6.30
2017-08-17T14:05:55.034Z,7.47
2017-08-17T14:08:23.298Z,6.60
2017-08-17T14:10:51.634Z,6.50
2017-08-17T14:13:19.102Z,10.33
2017-08-17T14:15:47.332Z,12.93
2017-08-17T14:18:14.886Z,7.33
2017-08-17T14:20:42.448Z,9.93
2017-08-17T14:23:10.678Z,8.57
2017-08-17T14:25:38.190Z,7.77
2017-08-17T14:28:05.664Z,8.83
2017-08-17T14:30:33.131Z,9.80
2017-08-17T14:33:00.730Z,6.73
2017-08-17T14:35:29.009Z,6.97
2017-08-17T14:37:56.529Z,4.53
2017-08-17T14:40:24.098Z,5.17
2017-08-17T14:42:52.327Z,6.63
2017-08-17T14:45:19.798Z,4.70
2017-08-17T14:47:48.258Z,6.80
2017-08-17T14:50:16.523Z,6.67
2017-08-17T14:52:44.750Z,6.80
2017-08-17T14:55:12.479Z,4.33
2017-08-17T14:57:40.031Z,6.83
2017-08-17T15:00:07.519Z,6.07
2017-08-17T15:02:35.918Z,3.93
2017-08-17T15:05:03.424Z,5.33
2017-08-17T15:07:31.650Z,4.80
2017-08-17T15:09:59.322Z,5.00
2017-08-17T15:12:27.596Z,7.87
2017-08-17T15:14:55.102Z,4.40
2017-08-17T15:17:22.601Z,8.17
2017-08-17T15:19:50.067Z,4.47
2017-08-17T15:22:18.318Z,5.73
2017-08-17T15:24:46.586Z,5.37
2017-08-17T15:27:14.825Z,8.70
2017-08-17T15:29:42.321Z,6.43
2017-08-17T15:32:09.791Z,6.00
2017-08-17T15:34:37.270Z,6.40
2017-08-17T15:37:05.517Z,6.60
2017-08-17T15:39:33.078Z,7.33
2017-08-17T15:42:01.322Z,4.87
2017-08-17T15:44:29.806Z,5.33
2017-08-17T15:46:57.583Z,6.30
2017-08-17T15:49:25.058Z,5.40
2017-08-17T15:51:53.325Z,5.93
2017-08-17T15:54:21.578Z,7.80
2017-08-17T15:56:49.941Z,5.30
2017-08-17T15:59:18.171Z,7.10
2017-08-17T16:01:45.647Z,7.73
2017-08-17T16:04:13.904Z,9.40
2017-08-17T16:06:42.134Z,6.57
2017-08-17T16:09:09.601Z,6.10
2017-08-17T16:11:37.327Z,8.50
2017-08-17T16:14:05.586Z,8.70
2017-08-17T16:16:33.855Z,6.50
2017-08-17T16:19:01.394Z,7.33
2017-08-17T16:21:28.913Z,9.37
2017-08-17T16:23:57.375Z,6.70
2017-08-17T16:26:25.598Z,6.23
2017-08-17T16:28:53.061Z,7.80
2017-08-17T16:31:20.665Z,10.27
2017-08-17T16:33:48.135Z,7.93
2017-08-17T16:36:15.604Z,7.57
2017-08-17T16:38:43.875Z,11.00
2017-08-17T16:41:12.231Z,9.13
2017-08-17T16:43:40.486Z,6.97
2017-08-17T16:46:08.750Z,8.70
2017-08-17T16:48:36.226Z,7.20
2017-08-17T16:51:03.691Z,8.63
2017-08-17T16:53:31.205Z,7.00
2017-08-17T16:55:58.729Z,8.40
2017-08-17T16:58:26.990Z,7.13
2017-08-17T17:00:55.359Z,6.47
2017-08-17T17:03:23.622Z,6.83
2017-08-17T17:05:51.866Z,7.70
2017-08-17T17:08:20.350Z,7.73
2017-08-17T17:10:48.578Z,10.10
2017-08-17T17:13:16.037Z,7.00
2017-08-17T17:15:44.514Z,6.70
2017-08-17T17:18:12.734Z,6.13
2017-08-17T17:20:40.209Z,6.00
2017-08-17T17:23:08.454Z,8.03
2017-08-17T17:25:36.703Z,7.70
2017-08-17T17:28:04.170Z,6.33
2017-08-17T17:30:32.578Z,7.93
2017-08-17T17:33:00.057Z,8.87
2017-08-17T17:35:28.292Z,6.00
2017-08-17T17:37:55.977Z,6.57
2017-08-17T17:40:23.828Z,6.70
2017-08-17T17:42:52.070Z,7.17
2017-08-17T17:45:19.686Z,6.77
2017-08-17T17:47:47.147Z,8.27
2017-08-17T17:50:14.602Z,7.63
2017-08-17T17:52:42.099Z,9.07
2017-08-17T17:55:09.566Z,6.10
2017-08-17T17:57:37.030Z,8.20
2017-08-17T18:00:04.530Z,6.70
2017-08-17T18:02:32.002Z,7.57
2017-08-17T18:05:00.250Z,7.70
2017-08-17T18:07:28.538Z,5.63
2017-08-17T18:09:56.003Z,5.40
2017-08-17T18:12:23.471Z,5.43
2017-08-17T18:14:51.149Z,6.67
2017-08-17T18:17:19.381Z,6.50
2017-08-17T18:19:46.846Z,6.77
2017-08-17T18:22:15.115Z,7.43
2017-08-17T18:24:43.341Z,7.03
2017-08-17T18:27:10.807Z,12.73
2017-08-17T18:29:39.054Z,9.07
2017-08-17T18:32:06.558Z,6.63
2017-08-17T18:34:34.023Z,8.03
2017-08-17T18:37:01.498Z,7.33
2017-08-17T18:39:29.735Z,7.07
2017-08-17T18:41:57.203Z,9.73
2017-08-17T18:44:25.466Z,8.37
2017-08-17T18:46:53.699Z,7.43
2017-08-17T18:49:21.166Z,6.90
2017-08-17T18:51:49.410Z,6.70
2017-08-17T18:54:16.870Z,6.93
2017-08-17T18:56:44.333Z,7.03
2017-08-17T18:59:12.594Z,6.53
2017-08-17T19:01:40.829Z,7.33
2017-08-17T19:04:08.330Z,6.03
2017-08-17T19:06:36.030Z,7.43
2017-08-17T19:09:03.503Z,6.07
2017-08-17T19:11:30.993Z,5.73
2017-08-17T19:13:58.485Z,5.53
2017-08-17T19:16:26.714Z,6.47
2017-08-17T19:18:54.186Z,7.03
2017-08-17T19:21:22.660Z,6.00
2017-08-17T19:23:50.119Z,6.93
2017-08-17T19:26:17.674Z,5.97
2017-08-17T19:28:45.142Z,7.13
2017-08-17T19:31:12.606Z,7.50
2017-08-17T19:33:41.074Z,7.67
2017-08-17T19:36:09.307Z,8.10
2017-08-17T19:38:36.766Z,7.60
2017-08-17T19:41:04.269Z,7.10
2017-08-17T19:43:32.503Z,6.63
2017-08-17T19:46:27.815Z,7.00
2017-08-17T19:48:55.271Z,8.93
2017-08-17T19:51:22.746Z,8.93
2017-08-17T19:53:50.326Z,7.27
2017-08-17T19:56:17.783Z,7.03
2017-08-17T19:58:45.287Z,7.63
2017-08-17T20:01:12.770Z,7.00
2017-08-17T20:03:40.998Z,6.93
2017-08-17T20:06:08.463Z,8.20
2017-08-17T20:08:35.982Z,9.30
2017-08-17T20:11:03.577Z,7.03
2017-08-17T20:13:31.047Z,6.80
2017-08-17T20:15:58.523Z,7.87
2017-08-17T20:18:26.022Z,7.83
2017-08-17T20:20:53.515Z,7.83
2017-08-17T20:23:21.074Z,6.47
2017-08-17T20:25:49.337Z,7.60
2017-08-17T20:28:17.601Z,8.07
2017-08-17T20:30:45.866Z,6.63
2017-08-17T20:33:14.345Z,6.13
2017-08-17T20:35:41.870Z,5.70
2017-08-17T20:38:10.107Z,6.63
2017-08-17T20:40:38.599Z,6.10
2017-08-17T20:43:06.861Z,6.13
2017-08-17T20:45:34.330Z,7.90
2017-08-17T20:48:01.913Z,6.33
2017-08-17T20:50:30.182Z,8.37
2017-08-17T20:52:58.418Z,5.33
2017-08-17T20:55:25.894Z,5.77
2017-08-17T20:57:53.434Z,4.77
2017-08-17T21:00:21.878Z,5.63
2017-08-17T21:02:50.111Z,4.63
2017-08-17T21:05:17.591Z,5.10
2017-08-17T21:07:45.082Z,6.17
2017-08-17T21:10:13.323Z,5.30
2017-08-17T21:12:40.851Z,4.27
2017-08-17T21:15:08.346Z,5.93
2017-08-17T21:17:35.802Z,4.60
2017-08-17T21:20:03.283Z,4.67
2017-08-17T21:22:31.542Z,5.80
2017-08-17T21:24:59.767Z,6.50
2017-08-17T21:27:27.234Z,4.70
2017-08-17T21:29:55.469Z,5.80
2017-08-17T21:32:23.042Z,4.57
2017-08-17T21:34:50.598Z,9.40
2017-08-17T21:37:18.062Z,5.60
2017-08-17T21:39:45.534Z,7.33
2017-08-17T21:42:13.998Z,5.63
2017-08-17T21:44:42.263Z,5.20
2017-08-17T21:47:10.487Z,5.17
2017-08-17T21:49:38.071Z,6.17
2017-08-17T21:52:06.298Z,6.50
2017-08-17T21:54:33.750Z,6.53
2017-08-17T21:57:01.301Z,6.13
2017-08-17T21:59:29.563Z,8.93
2017-08-17T22:01:57.787Z,5.90
2017-08-17T22:04:25.470Z,7.70
2017-08-17T22:06:53.742Z,7.40
2017-08-17T22:09:21.975Z,9.60
2017-08-17T22:11:49.540Z,6.00
2017-08-17T22:14:17.784Z,6.70
2017-08-17T22:16:45.337Z,7.17
2017-08-17T22:19:13.801Z,6.30
2017-08-17T22:21:42.071Z,6.30
2017-08-17T22:24:11.250Z,7.63
2017-08-17T22:26:39.587Z,5.73
2017-08-17T22:29:07.046Z,8.17
2017-08-17T22:31:35.310Z,10.60
2017-08-17T22:34:03.679Z,7.37
2017-08-17T22:36:31.907Z,7.63
2017-08-17T22:38:59.478Z,7.17
2017-08-17T22:41:27.730Z,8.90
2017-08-17T22:43:55.990Z,9.10
2017-08-17T22:46:23.451Z,7.93
2017-08-17T22:48:50.979Z,7.17
2017-08-17T22:51:19.234Z,9.03
2017-08-17T22:53:47.704Z,6.80
2017-08-17T22:56:15.931Z,8.00
2017-08-17T22:58:43.402Z,7.53
2017-08-17T23:01:11.667Z,7.60
2017-08-17T23:03:39.894Z,7.50
2017-08-17T23:06:07.381Z,10.43
2017-08-17T23:08:34.862Z,9.47
2017-08-17T23:11:02.363Z,8.70
2017-08-17T23:13:29.823Z,8.63
2017-08-17T23:15:57.343Z,9.07
2017-08-17T23:18:25.594Z,8.90
2017-08-17T23:20:53.859Z,10.40
2017-08-17T23:23:22.213Z,7.10
2017-08-17T23:25:50.478Z,10.50
2017-08-17T23:28:18.741Z,8.57
2017-08-17T23:30:47.198Z,12.33
2017-08-17T23:33:15.566Z,11.00
2017-08-17T23:35:43.818Z,7.03
2017-08-17T23:38:11.303Z,8.97
2017-08-17T23:40:39.518Z,9.20
2017-08-17T23:43:07.102Z,7.10
2017-08-17T23:45:35.362Z,7.40
2017-08-17T23:48:03.582Z,7.27
2017-08-17T23:50:31.069Z,9.90
2017-08-17T23:52:59.322Z,8.37
2017-08-17T23:55:27.560Z,7.30
2017-08-17T23:57:55.045Z,8.73
